sensor_id;sensor_type;location;lat;lon;timestamp;temperature;humidity
35668;DHT22;22158;59.280;17.806;2023-01-28T05:01:21;-0.70;99.90
35668;DHT22;22158;59.280;17.806;2023-01-28T05:03:46;-0.70;99.90
35668;DHT22;22158;59.280;17.806;2023-01-28T05:06:12;-0.60;99.90
35668;DHT22;22158;59.280;17.806;2023-01-28T05:08:38;-0.70;99.90
35668;DHT22;22158;59.280;17.806;2023-01-28T05:11:04;-0.60;99.90
35668;DHT22;22158;59.280;17.806;2023-01-28T05:13:29;-0.60;99.90
35668;DHT22;22158;59.280;17.806;2023-01-28T05:15:55;-0.60;99.90
35668;DHT22;22158;59.280;17.806;2023-01-28T05:18:21;-0.50;99.90
35668;DHT22;22158;59.280;17.806;2023-01-28T05:20:47;-0.50;99.90
35668;DHT22;22158;59.280;17.806;2023-01-28T05:23:12;-0.40;99.90
35668;DHT22;22158;59.280;17.806;2023-01-28T05:25:38;-0.40;99.90
35668;DHT22;22158;59.280;17.806;2023-01-28T05:28:04;-0.30;99.90
35668;DHT22;22158;59.280;17.806;2023-01-28T05:30:29;-0.30;99.90
35668;DHT22;22158;59.280;17.806;2023-01-28T05:32:56;-0.30;99.90
35668;DHT22;22158;59.280;17.806;2023-01-28T05:35:22;-0.30;99.90
35668;DHT22;22158;59.280;17.806;2023-01-28T05:37:47;-0.30;99.90
35668;DHT22;22158;59.280;17.806;2023-01-28T05:40:13;-0.30;99.90
35668;DHT22;22158;59.280;17.806;2023-01-28T05:42:39;-0.30;99.90
35668;DHT22;22158;59.280;17.806;2023-01-28T05:45:05;-0.30;99.90
35668;DHT22;22158;59.280;17.806;2023-01-28T05:47:32;-0.30;99.90
35668;DHT22;22158;59.280;17.806;2023-01-28T05:49:58;-0.30;99.90
35668;DHT22;22158;59.280;17.806;2023-01-28T05:52:24;-0.20;99.90
35668;DHT22;22158;59.280;17.806;2023-01-28T05:54:49;-0.20;99.90
35668;DHT22;22158;59.280;17.806;2023-01-28T05:57:15;-0.20;99.90
35668;DHT22;22158;59.280;17.806;2023-01-28T05:59:41;-0.20;99.90
35668;DHT22;22158;59.280;17.806;2023-01-28T06:02:06;-0.20;99.90
35668;DHT22;22158;59.280;17.806;2023-01-28T06:04:32;-0.20;99.90
35668;DHT22;22158;59.280;17.806;2023-01-28T06:06:58;-0.10;99.90
35668;DHT22;22158;59.280;17.806;2023-01-28T06:09:23;-0.10;99.90
35668;DHT22;22158;59.280;17.806;2023-01-28T06:11:49;-0.20;99.90
35668;DHT22;22158;59.280;17.806;2023-01-28T06:14:15;-0.10;99.90
35668;DHT22;22158;59.280;17.806;2023-01-28T06:16:41;-0.10;99.90
35668;DHT22;22158;59.280;17.806;2023-01-28T06:19:06;-0.10;99.90
35668;DHT22;22158;59.280;17.806;2023-01-28T06:21:32;-0.10;99.90
35668;DHT22;22158;59.280;17.806;2023-01-28T06:23:58;-0.10;99.90
35668;DHT22;22158;59.280;17.806;2023-01-28T06:26:24;-0.10;99.90
35668;DHT22;22158;59.280;17.806;2023-01-28T06:28:52;-0.20;99.90
35668;DHT22;22158;59.280;17.806;2023-01-28T06:31:17;-0.10;99.90
35668;DHT22;22158;59.280;17.806;2023-01-28T06:33:43;-0.10;99.90
35668;DHT22;22158;59.280;17.806;2023-01-28T06:36:09;-0.10;99.90
35668;DHT22;22158;59.280;17.806;2023-01-28T06:38:35;-0.10;99.90
35668;DHT22;22158;59.280;17.806;2023-01-28T06:41:03;-0.10;99.90
35668;DHT22;22158;59.280;17.806;2023-01-28T06:43:30;-0.10;99.90
35668;DHT22;22158;59.280;17.806;2023-01-28T06:45:57;-0.10;99.90
35668;DHT22;22158;59.280;17.806;2023-01-28T06:48:24;-0.10;99.90
35668;DHT22;22158;59.280;17.806;2023-01-28T06:50:50;-0.10;99.90
35668;DHT22;22158;59.280;17.806;2023-01-28T06:53:16;-0.10;99.90
35668;DHT22;22158;59.280;17.806;2023-01-28T06:55:42;-0.10;99.90
35668;DHT22;22158;59.280;17.806;2023-01-28T06:58:08;0.00;99.90
35668;DHT22;22158;59.280;17.806;2023-01-28T07:00:34;0.00;99.90
35668;DHT22;22158;59.280;17.806;2023-01-28T07:02:59;0.00;99.90
35668;DHT22;22158;59.280;17.806;2023-01-28T07:05:25;0.00;99.90
35668;DHT22;22158;59.280;17.806;2023-01-28T07:07:51;0.00;99.90
35668;DHT22;22158;59.280;17.806;2023-01-28T07:10:17;0.00;99.90
35668;DHT22;22158;59.280;17.806;2023-01-28T07:12:43;0.00;99.90
35668;DHT22;22158;59.280;17.806;2023-01-28T07:15:10;0.00;99.90
35668;DHT22;22158;59.280;17.806;2023-01-28T07:17:43;0.00;99.90
35668;DHT22;22158;59.280;17.806;2023-01-28T07:20:11;0.00;99.90
35668;DHT22;22158;59.280;17.806;2023-01-28T07:22:39;0.00;99.90
35668;DHT22;22158;59.280;17.806;2023-01-28T07:25:06;0.00;99.90
35668;DHT22;22158;59.280;17.806;2023-01-28T07:27:32;0.10;99.90
35668;DHT22;22158;59.280;17.806;2023-01-28T07:29:58;0.10;99.90
35668;DHT22;22158;59.280;17.806;2023-01-28T07:32:31;0.10;99.90
35668;DHT22;22158;59.280;17.806;2023-01-28T07:34:57;0.10;99.90
35668;DHT22;22158;59.280;17.806;2023-01-28T07:37:23;0.10;99.90
35668;DHT22;22158;59.280;17.806;2023-01-28T07:39:48;0.10;99.90
35668;DHT22;22158;59.280;17.806;2023-01-28T07:42:14;0.10;99.90
35668;DHT22;22158;59.280;17.806;2023-01-28T07:44:40;0.10;99.90
35668;DHT22;22158;59.280;17.806;2023-01-28T07:47:06;0.20;99.90
35668;DHT22;22158;59.280;17.806;2023-01-28T07:49:35;0.10;99.90
35668;DHT22;22158;59.280;17.806;2023-01-28T07:52:02;0.20;99.90
35668;DHT22;22158;59.280;17.806;2023-01-28T07:54:28;0.20;99.90
35668;DHT22;22158;59.280;17.806;2023-01-28T07:56:54;0.20;99.90
35668;DHT22;22158;59.280;17.806;2023-01-28T07:59:19;0.20;99.90
35668;DHT22;22158;59.280;17.806;2023-01-28T08:01:45;0.20;99.90
35668;DHT22;22158;59.280;17.806;2023-01-28T08:04:11;0.30;99.90
35668;DHT22;22158;59.280;17.806;2023-01-28T08:06:36;0.20;99.90
35668;DHT22;22158;59.280;17.806;2023-01-28T08:09:06;0.20;99.90
35668;DHT22;22158;59.280;17.806;2023-01-28T08:11:37;0.20;99.90
35668;DHT22;22158;59.280;17.806;2023-01-28T08:14:03;0.20;99.90
35668;DHT22;22158;59.280;17.806;2023-01-28T08:16:29;0.30;99.90
35668;DHT22;22158;59.280;17.806;2023-01-28T08:18:55;0.30;99.90
35668;DHT22;22158;59.280;17.806;2023-01-28T08:21:21;0.40;99.90
35668;DHT22;22158;59.280;17.806;2023-01-28T08:23:47;0.40;99.90
35668;DHT22;22158;59.280;17.806;2023-01-28T08:26:13;0.30;99.90
35668;DHT22;22158;59.280;17.806;2023-01-28T08:28:38;0.30;99.90
35668;DHT22;22158;59.280;17.806;2023-01-28T08:31:04;0.30;99.90
35668;DHT22;22158;59.280;17.806;2023-01-28T08:33:30;0.40;99.90
35668;DHT22;22158;59.280;17.806;2023-01-28T08:35:57;0.30;99.90
35668;DHT22;22158;59.280;17.806;2023-01-28T08:38:22;0.30;99.90
35668;DHT22;22158;59.280;17.806;2023-01-28T08:40:48;0.30;99.90
35668;DHT22;22158;59.280;17.806;2023-01-28T08:43:15;0.30;99.90
35668;DHT22;22158;59.280;17.806;2023-01-28T08:45:44;0.30;99.90
35668;DHT22;22158;59.280;17.806;2023-01-28T08:48:14;0.30;99.90
35668;DHT22;22158;59.280;17.806;2023-01-28T08:50:40;0.40;99.90
35668;DHT22;22158;59.280;17.806;2023-01-28T08:53:10;0.40;99.90
35668;DHT22;22158;59.280;17.806;2023-01-28T08:55:37;0.40;99.90
35668;DHT22;22158;59.280;17.806;2023-01-28T08:58:05;0.50;99.90
35668;DHT22;22158;59.280;17.806;2023-01-28T09:00:32;0.50;99.90
35668;DHT22;22158;59.280;17.806;2023-01-28T09:02:57;0.50;99.90
35668;DHT22;22158;59.280;17.806;2023-01-28T09:05:23;0.50;99.90
35668;DHT22;22158;59.280;17.806;2023-01-28T09:07:49;0.60;99.90
35668;DHT22;22158;59.280;17.806;2023-01-28T09:10:15;0.50;99.90
35668;DHT22;22158;59.280;17.806;2023-01-28T09:12:42;0.60;99.90
35668;DHT22;22158;59.280;17.806;2023-01-28T09:15:08;0.70;99.90
35668;DHT22;22158;59.280;17.806;2023-01-28T09:17:34;0.70;99.90
35668;DHT22;22158;59.280;17.806;2023-01-28T09:20:00;0.70;99.90
35668;DHT22;22158;59.280;17.806;2023-01-28T09:22:25;0.70;99.90
35668;DHT22;22158;59.280;17.806;2023-01-28T09:24:51;0.70;99.90
35668;DHT22;22158;59.280;17.806;2023-01-28T09:27:17;0.70;99.90
35668;DHT22;22158;59.280;17.806;2023-01-28T09:29:42;0.70;99.90
35668;DHT22;22158;59.280;17.806;2023-01-28T09:32:08;0.80;99.90
35668;DHT22;22158;59.280;17.806;2023-01-28T09:34:34;0.80;99.90
35668;DHT22;22158;59.280;17.806;2023-01-28T09:37:00;0.80;99.90
35668;DHT22;22158;59.280;17.806;2023-01-28T09:39:26;0.80;99.90
35668;DHT22;22158;59.280;17.806;2023-01-28T09:48:11;1.00;99.90
35668;DHT22;22158;59.280;17.806;2023-01-28T09:50:37;1.00;99.90
35668;DHT22;22158;59.280;17.806;2023-01-28T09:53:24;1.00;99.90
35668;DHT22;22158;59.280;17.806;2023-01-28T09:58:25;1.10;99.90
35668;DHT22;22158;59.280;17.806;2023-01-28T10:01:05;1.10;99.90
35668;DHT22;22158;59.280;17.806;2023-01-28T10:03:58;1.20;99.90
35668;DHT22;22158;59.280;17.806;2023-01-28T10:07:01;1.20;99.90
35668;DHT22;22158;59.280;17.806;2023-01-28T10:09:45;1.30;99.90
35668;DHT22;22158;59.280;17.806;2023-01-28T10:17:45;1.40;99.90
35668;DHT22;22158;59.280;17.806;2023-01-28T10:22:45;1.50;99.90
35668;DHT22;22158;59.280;17.806;2023-01-28T10:25:26;1.60;99.90
35668;DHT22;22158;59.280;17.806;2023-01-28T10:27:53;1.60;99.90
35668;DHT22;22158;59.280;17.806;2023-01-28T10:30:24;1.70;99.90
35668;DHT22;22158;59.280;17.806;2023-01-28T10:35:15;1.80;99.90
35668;DHT22;22158;59.280;17.806;2023-01-28T10:37:41;1.80;99.90
35668;DHT22;22158;59.280;17.806;2023-01-28T10:40:15;1.80;99.90
35668;DHT22;22158;59.280;17.806;2023-01-28T10:42:41;1.80;99.90
35668;DHT22;22158;59.280;17.806;2023-01-28T10:45:29;1.80;99.90
35668;DHT22;22158;59.280;17.806;2023-01-28T10:50:28;2.00;99.90
35668;DHT22;22158;59.280;17.806;2023-01-28T10:53:01;2.00;99.90
35668;DHT22;22158;59.280;17.806;2023-01-28T10:55:30;2.10;99.90
35668;DHT22;22158;59.280;17.806;2023-01-28T10:57:58;2.20;99.90
35668;DHT22;22158;59.280;17.806;2023-01-28T11:00:25;2.30;99.90
35668;DHT22;22158;59.280;17.806;2023-01-28T11:02:53;2.40;99.90
35668;DHT22;22158;59.280;17.806;2023-01-28T11:05:22;2.50;99.90
35668;DHT22;22158;59.280;17.806;2023-01-28T11:08:01;2.60;99.90
35668;DHT22;22158;59.280;17.806;2023-01-28T11:10:33;2.60;99.90
35668;DHT22;22158;59.280;17.806;2023-01-28T11:16:13;2.80;99.90
35668;DHT22;22158;59.280;17.806;2023-01-28T11:18:49;2.90;99.90
35668;DHT22;22158;59.280;17.806;2023-01-28T11:21:21;2.90;99.90
35668;DHT22;22158;59.280;17.806;2023-01-28T11:24:00;3.00;99.90
35668;DHT22;22158;59.280;17.806;2023-01-28T11:26:33;3.00;99.90
35668;DHT22;22158;59.280;17.806;2023-01-28T11:28:59;3.00;99.90
35668;DHT22;22158;59.280;17.806;2023-01-28T11:31:25;3.00;99.90
35668;DHT22;22158;59.280;17.806;2023-01-28T11:33:59;3.10;99.90
35668;DHT22;22158;59.280;17.806;2023-01-28T11:36:30;3.00;99.90
35668;DHT22;22158;59.280;17.806;2023-01-28T11:39:02;3.00;99.90
35668;DHT22;22158;59.280;17.806;2023-01-28T11:43:59;3.10;99.90
35668;DHT22;22158;59.280;17.806;2023-01-28T12:03:22;3.10;99.90
35668;DHT22;22158;59.280;17.806;2023-01-28T12:05:55;3.20;99.90
35668;DHT22;22158;59.280;17.806;2023-01-28T12:08:36;3.20;99.90
35668;DHT22;22158;59.280;17.806;2023-01-28T12:11:32;3.10;99.90
35668;DHT22;22158;59.280;17.806;2023-01-28T12:17:26;3.20;99.90
35668;DHT22;22158;59.280;17.806;2023-01-28T12:33:33;3.20;99.90
35668;DHT22;22158;59.280;17.806;2023-01-28T12:36:21;3.20;99.90
35668;DHT22;22158;59.280;17.806;2023-01-28T12:41:39;3.30;99.90
35668;DHT22;22158;59.280;17.806;2023-01-28T12:44:28;3.30;99.90
35668;DHT22;22158;59.280;17.806;2023-01-28T12:46:59;3.30;99.90
35668;DHT22;22158;59.280;17.806;2023-01-28T12:49:39;3.30;99.90
35668;DHT22;22158;59.280;17.806;2023-01-28T12:55:15;3.30;99.90
35668;DHT22;22158;59.280;17.806;2023-01-28T12:57:43;3.30;99.90
35668;DHT22;22158;59.280;17.806;2023-01-28T13:00:29;3.30;99.90
35668;DHT22;22158;59.280;17.806;2023-01-28T13:05:47;3.30;99.90
35668;DHT22;22158;59.280;17.806;2023-01-28T13:10:42;3.50;99.90
35668;DHT22;22158;59.280;17.806;2023-01-28T13:15:51;3.50;99.90
35668;DHT22;22158;59.280;17.806;2023-01-28T13:26:50;3.30;99.90
35668;DHT22;22158;59.280;17.806;2023-01-28T13:29:26;3.30;99.90
35668;DHT22;22158;59.280;17.806;2023-01-28T13:31:56;3.30;99.90
35668;DHT22;22158;59.280;17.806;2023-01-28T13:34:29;3.20;99.90
35668;DHT22;22158;59.280;17.806;2023-01-28T13:37:00;3.20;99.90
35668;DHT22;22158;59.280;17.806;2023-01-28T13:39:26;3.20;99.90
35668;DHT22;22158;59.280;17.806;2023-01-28T13:42:07;3.20;99.90
35668;DHT22;22158;59.280;17.806;2023-01-28T13:44:35;3.20;99.90
35668;DHT22;22158;59.280;17.806;2023-01-28T13:49:41;3.00;99.90
35668;DHT22;22158;59.280;17.806;2023-01-28T13:54:37;2.90;99.90
35668;DHT22;22158;59.280;17.806;2023-01-28T14:17:03;2.90;99.90
35668;DHT22;22158;59.280;17.806;2023-01-28T14:19:33;2.80;99.90
35668;DHT22;22158;59.280;17.806;2023-01-28T14:22:08;2.70;99.90
35668;DHT22;22158;59.280;17.806;2023-01-28T14:24:36;2.70;99.90
35668;DHT22;22158;59.280;17.806;2023-01-28T14:32:16;2.70;99.90
35668;DHT22;22158;59.280;17.806;2023-01-28T14:34:43;2.70;99.90
35668;DHT22;22158;59.280;17.806;2023-01-28T14:37:17;2.60;99.90
35668;DHT22;22158;59.280;17.806;2023-01-28T14:40:00;2.60;99.90
35668;DHT22;22158;59.280;17.806;2023-01-28T14:42:30;2.60;99.90
35668;DHT22;22158;59.280;17.806;2023-01-28T14:58:49;2.30;99.90
35668;DHT22;22158;59.280;17.806;2023-01-28T15:01:24;2.20;99.90
35668;DHT22;22158;59.280;17.806;2023-01-28T15:03:50;2.20;99.90
35668;DHT22;22158;59.280;17.806;2023-01-28T15:06:25;2.20;99.90
35668;DHT22;22158;59.280;17.806;2023-01-28T15:09:08;2.10;99.90
35668;DHT22;22158;59.280;17.806;2023-01-28T15:11:37;2.10;99.90
35668;DHT22;22158;59.280;17.806;2023-01-28T15:14:07;2.00;99.90
35668;DHT22;22158;59.280;17.806;2023-01-28T15:16:37;2.00;99.90
35668;DHT22;22158;59.280;17.806;2023-01-28T15:19:06;1.90;99.90
35668;DHT22;22158;59.280;17.806;2023-01-28T15:21:34;1.80;99.90
35668;DHT22;22158;59.280;17.806;2023-01-28T15:24:00;1.90;99.90
35668;DHT22;22158;59.280;17.806;2023-01-28T15:26:30;1.90;99.90
35668;DHT22;22158;59.280;17.806;2023-01-28T15:28:57;1.90;99.90
35668;DHT22;22158;59.280;17.806;2023-01-28T15:31:32;1.90;99.90
35668;DHT22;22158;59.280;17.806;2023-01-28T15:34:19;1.90;99.90
35668;DHT22;22158;59.280;17.806;2023-01-28T15:36:46;1.90;99.90
35668;DHT22;22158;59.280;17.806;2023-01-28T15:39:19;1.80;99.90
35668;DHT22;22158;59.280;17.806;2023-01-28T15:41:49;1.70;99.90
35668;DHT22;22158;59.280;17.806;2023-01-28T15:44:59;1.70;99.90
35668;DHT22;22158;59.280;17.806;2023-01-28T15:47:21;1.70;99.90
35668;DHT22;22158;59.280;17.806;2023-01-28T15:49:53;1.70;99.90
35668;DHT22;22158;59.280;17.806;2023-01-28T15:52:21;1.70;99.90
35668;DHT22;22158;59.280;17.806;2023-01-28T15:54:53;1.60;99.90
35668;DHT22;22158;59.280;17.806;2023-01-28T15:57:21;1.70;99.90
35668;DHT22;22158;59.280;17.806;2023-01-28T15:59:47;1.70;99.90
35668;DHT22;22158;59.280;17.806;2023-01-28T16:02:25;1.50;99.90
35668;DHT22;22158;59.280;17.806;2023-01-28T16:05:01;1.50;99.90
35668;DHT22;22158;59.280;17.806;2023-01-28T16:07:30;1.40;99.90
35668;DHT22;22158;59.280;17.806;2023-01-28T16:10:22;1.30;99.90
35668;DHT22;22158;59.280;17.806;2023-01-28T16:12:52;1.20;99.90
35668;DHT22;22158;59.280;17.806;2023-01-28T16:15:19;1.20;99.90
35668;DHT22;22158;59.280;17.806;2023-01-28T16:17:50;1.20;99.90
35668;DHT22;22158;59.280;17.806;2023-01-28T16:22:45;1.10;99.90
35668;DHT22;22158;59.280;17.806;2023-01-28T16:27:47;1.00;99.90
35668;DHT22;22158;59.280;17.806;2023-01-28T16:30:13;0.90;99.90
35668;DHT22;22158;59.280;17.806;2023-01-28T16:32:40;0.90;99.90
35668;DHT22;22158;59.280;17.806;2023-01-28T16:35:18;0.90;99.90
35668;DHT22;22158;59.280;17.806;2023-01-28T16:37:45;0.80;99.90
35668;DHT22;22158;59.280;17.806;2023-01-28T16:40:13;0.80;99.90
35668;DHT22;22158;59.280;17.806;2023-01-28T16:42:39;0.80;99.90
35668;DHT22;22158;59.280;17.806;2023-01-28T16:45:05;0.80;99.90
35668;DHT22;22158;59.280;17.806;2023-01-28T16:47:31;0.70;99.90
35668;DHT22;22158;59.280;17.806;2023-01-28T16:49:57;0.70;99.90
35668;DHT22;22158;59.280;17.806;2023-01-28T16:52:23;0.70;99.90
35668;DHT22;22158;59.280;17.806;2023-01-28T16:54:49;0.70;99.90
35668;DHT22;22158;59.280;17.806;2023-01-28T16:57:17;0.70;99.90
35668;DHT22;22158;59.280;17.806;2023-01-28T16:59:43;0.70;99.90
35668;DHT22;22158;59.280;17.806;2023-01-28T17:02:11;0.70;99.90
35668;DHT22;22158;59.280;17.806;2023-01-28T17:04:37;0.70;99.90
35668;DHT22;22158;59.280;17.806;2023-01-28T17:07:03;0.60;99.90
35668;DHT22;22158;59.280;17.806;2023-01-28T17:09:29;0.60;99.90
35668;DHT22;22158;59.280;17.806;2023-01-28T17:11:55;0.60;99.90
35668;DHT22;22158;59.280;17.806;2023-01-28T17:14:21;0.60;99.90
35668;DHT22;22158;59.280;17.806;2023-01-28T17:16:47;0.50;99.90
35668;DHT22;22158;59.280;17.806;2023-01-28T17:19:12;0.50;99.90
35668;DHT22;22158;59.280;17.806;2023-01-28T17:21:40;0.50;99.90
35668;DHT22;22158;59.280;17.806;2023-01-28T17:24:06;0.40;99.90
35668;DHT22;22158;59.280;17.806;2023-01-28T17:26:32;0.40;99.90
35668;DHT22;22158;59.280;17.806;2023-01-28T17:28:59;0.30;99.90
35668;DHT22;22158;59.280;17.806;2023-01-28T17:31:25;0.40;99.90
35668;DHT22;22158;59.280;17.806;2023-01-28T17:33:56;0.30;99.90
35668;DHT22;22158;59.280;17.806;2023-01-28T17:36:23;0.20;99.90
35668;DHT22;22158;59.280;17.806;2023-01-28T17:38:49;0.20;99.90
35668;DHT22;22158;59.280;17.806;2023-01-28T17:41:15;0.30;99.90
35668;DHT22;22158;59.280;17.806;2023-01-28T17:43:51;0.30;99.90
35668;DHT22;22158;59.280;17.806;2023-01-28T17:46:17;0.30;99.90
35668;DHT22;22158;59.280;17.806;2023-01-28T17:48:43;0.30;99.90
35668;DHT22;22158;59.280;17.806;2023-01-28T17:51:11;0.30;99.90
35668;DHT22;22158;59.280;17.806;2023-01-28T17:53:36;0.30;99.90
35668;DHT22;22158;59.280;17.806;2023-01-28T17:56:02;0.30;99.90
35668;DHT22;22158;59.280;17.806;2023-01-28T17:58:28;0.30;99.90
35668;DHT22;22158;59.280;17.806;2023-01-28T18:00:54;0.30;99.90
35668;DHT22;22158;59.280;17.806;2023-01-28T18:03:19;0.20;99.90
35668;DHT22;22158;59.280;17.806;2023-01-28T18:05:55;0.20;99.90
35668;DHT22;22158;59.280;17.806;2023-01-28T18:08:22;0.20;99.90
35668;DHT22;22158;59.280;17.806;2023-01-28T18:10:48;0.20;99.90
35668;DHT22;22158;59.280;17.806;2023-01-28T18:13:13;0.20;99.90
35668;DHT22;22158;59.280;17.806;2023-01-28T18:15:39;0.20;99.90
35668;DHT22;22158;59.280;17.806;2023-01-28T18:18:05;0.10;99.90
35668;DHT22;22158;59.280;17.806;2023-01-28T18:20:31;0.20;99.90
35668;DHT22;22158;59.280;17.806;2023-01-28T18:23:00;0.30;99.90
35668;DHT22;22158;59.280;17.806;2023-01-28T18:25:26;0.30;99.90
35668;DHT22;22158;59.280;17.806;2023-01-28T18:27:52;0.20;99.90
35668;DHT22;22158;59.280;17.806;2023-01-28T18:30:18;0.20;99.90
35668;DHT22;22158;59.280;17.806;2023-01-28T18:32:44;0.20;99.90
35668;DHT22;22158;59.280;17.806;2023-01-28T18:35:10;0.20;99.90
35668;DHT22;22158;59.280;17.806;2023-01-28T18:37:36;0.20;99.90
35668;DHT22;22158;59.280;17.806;2023-01-28T18:40:02;0.20;99.90
35668;DHT22;22158;59.280;17.806;2023-01-28T18:42:29;0.10;99.90
35668;DHT22;22158;59.280;17.806;2023-01-28T18:44:57;0.10;99.90
35668;DHT22;22158;59.280;17.806;2023-01-28T18:47:30;0.00;99.90
35668;DHT22;22158;59.280;17.806;2023-01-28T18:49:56;0.00;99.90
35668;DHT22;22158;59.280;17.806;2023-01-28T18:52:21;0.00;99.90
35668;DHT22;22158;59.280;17.806;2023-01-28T18:54:47;-0.10;99.90
35668;DHT22;22158;59.280;17.806;2023-01-28T18:57:13;-0.10;99.90
35668;DHT22;22158;59.280;17.806;2023-01-28T18:59:38;-0.10;99.90
35668;DHT22;22158;59.280;17.806;2023-01-28T19:02:04;0.10;99.90
35668;DHT22;22158;59.280;17.806;2023-01-28T19:04:30;0.20;99.90
35668;DHT22;22158;59.280;17.806;2023-01-28T19:06:56;0.40;99.90
35668;DHT22;22158;59.280;17.806;2023-01-28T19:09:22;0.40;99.90
35668;DHT22;22158;59.280;17.806;2023-01-28T19:11:48;0.50;99.90
35668;DHT22;22158;59.280;17.806;2023-01-28T19:14:15;0.50;99.90
35668;DHT22;22158;59.280;17.806;2023-01-28T19:16:43;0.50;99.90
35668;DHT22;22158;59.280;17.806;2023-01-28T19:19:09;0.60;99.90
35668;DHT22;22158;59.280;17.806;2023-01-28T19:21:35;0.60;99.90
35668;DHT22;22158;59.280;17.806;2023-01-28T19:24:04;0.50;99.90
35668;DHT22;22158;59.280;17.806;2023-01-28T19:26:36;0.50;99.90
35668;DHT22;22158;59.280;17.806;2023-01-28T19:29:06;0.50;99.90
35668;DHT22;22158;59.280;17.806;2023-01-28T19:31:32;0.50;99.90
35668;DHT22;22158;59.280;17.806;2023-01-28T19:33:59;0.50;99.90
35668;DHT22;22158;59.280;17.806;2023-01-28T19:36:27;0.50;99.90
35668;DHT22;22158;59.280;17.806;2023-01-28T19:38:57;0.50;99.90
35668;DHT22;22158;59.280;17.806;2023-01-28T19:41:24;0.50;99.90
35668;DHT22;22158;59.280;17.806;2023-01-28T19:43:50;0.50;99.90
35668;DHT22;22158;59.280;17.806;2023-01-28T19:46:16;0.50;99.90
35668;DHT22;22158;59.280;17.806;2023-01-28T19:48:42;0.50;99.90
35668;DHT22;22158;59.280;17.806;2023-01-28T19:51:09;0.40;99.90
35668;DHT22;22158;59.280;17.806;2023-01-28T19:53:36;0.30;99.90
35668;DHT22;22158;59.280;17.806;2023-01-28T19:56:06;0.30;99.90
35668;DHT22;22158;59.280;17.806;2023-01-28T19:58:33;0.30;99.90
35668;DHT22;22158;59.280;17.806;2023-01-28T20:01:07;0.30;99.90
35668;DHT22;22158;59.280;17.806;2023-01-28T20:03:33;0.30;99.90
35668;DHT22;22158;59.280;17.806;2023-01-28T20:06:00;0.20;99.90
35668;DHT22;22158;59.280;17.806;2023-01-28T20:08:28;0.10;99.90
35668;DHT22;22158;59.280;17.806;2023-01-28T20:13:30;0.00;99.90
35668;DHT22;22158;59.280;17.806;2023-01-28T20:15:56;0.00;99.90
35668;DHT22;22158;59.280;17.806;2023-01-28T20:18:22;0.00;99.90
35668;DHT22;22158;59.280;17.806;2023-01-28T20:20:54;-0.10;99.90
35668;DHT22;22158;59.280;17.806;2023-01-28T20:23:21;-0.10;99.90
35668;DHT22;22158;59.280;17.806;2023-01-28T20:25:51;0.00;99.90
35668;DHT22;22158;59.280;17.806;2023-01-28T20:28:22;0.00;99.90
35668;DHT22;22158;59.280;17.806;2023-01-28T20:30:48;0.10;99.90
35668;DHT22;22158;59.280;17.806;2023-01-28T20:33:14;0.10;99.90
35668;DHT22;22158;59.280;17.806;2023-01-28T20:35:40;0.10;99.90
35668;DHT22;22158;59.280;17.806;2023-01-28T20:38:06;0.10;99.90
35668;DHT22;22158;59.280;17.806;2023-01-28T20:40:32;0.10;99.90
35668;DHT22;22158;59.280;17.806;2023-01-28T20:42:58;0.00;99.90
35668;DHT22;22158;59.280;17.806;2023-01-28T20:45:23;0.00;99.90
35668;DHT22;22158;59.280;17.806;2023-01-28T20:47:50;0.00;99.90
35668;DHT22;22158;59.280;17.806;2023-01-28T20:50:16;0.00;99.90
35668;DHT22;22158;59.280;17.806;2023-01-28T20:52:41;-0.10;99.90
35668;DHT22;22158;59.280;17.806;2023-01-28T20:55:08;-0.10;99.90
35668;DHT22;22158;59.280;17.806;2023-01-28T20:57:34;-0.10;99.90
35668;DHT22;22158;59.280;17.806;2023-01-28T21:00:06;-0.20;99.90
35668;DHT22;22158;59.280;17.806;2023-01-28T21:02:32;-0.20;99.90
35668;DHT22;22158;59.280;17.806;2023-01-28T21:05:02;-0.10;99.90
35668;DHT22;22158;59.280;17.806;2023-01-28T21:07:28;-0.20;99.90
35668;DHT22;22158;59.280;17.806;2023-01-28T21:09:54;-0.30;99.90
35668;DHT22;22158;59.280;17.806;2023-01-28T21:12:20;-0.30;99.90
35668;DHT22;22158;59.280;17.806;2023-01-28T21:14:46;-0.30;99.90
35668;DHT22;22158;59.280;17.806;2023-01-28T21:17:13;-0.30;99.90
35668;DHT22;22158;59.280;17.806;2023-01-28T21:19:39;-0.30;99.90
35668;DHT22;22158;59.280;17.806;2023-01-28T21:22:04;-0.30;99.90
35668;DHT22;22158;59.280;17.806;2023-01-28T21:24:33;-0.40;99.90
35668;DHT22;22158;59.280;17.806;2023-01-28T21:26:58;-0.40;99.90
35668;DHT22;22158;59.280;17.806;2023-01-28T21:29:24;-0.50;99.90
35668;DHT22;22158;59.280;17.806;2023-01-28T21:31:50;-0.40;99.90
35668;DHT22;22158;59.280;17.806;2023-01-28T21:34:15;-0.40;99.90
35668;DHT22;22158;59.280;17.806;2023-01-28T21:36:41;-0.50;99.90
35668;DHT22;22158;59.280;17.806;2023-01-28T21:39:08;-0.50;99.90
35668;DHT22;22158;59.280;17.806;2023-01-28T21:41:34;-0.60;99.90
35668;DHT22;22158;59.280;17.806;2023-01-28T21:44:00;-0.60;99.90
35668;DHT22;22158;59.280;17.806;2023-01-28T21:46:29;-0.50;99.90
35668;DHT22;22158;59.280;17.806;2023-01-28T21:48:56;-0.50;99.90
35668;DHT22;22158;59.280;17.806;2023-01-28T21:51:22;-0.40;99.90
35668;DHT22;22158;59.280;17.806;2023-01-28T21:54:01;-0.30;99.90
35668;DHT22;22158;59.280;17.806;2023-01-28T21:56:27;-0.30;99.90
35668;DHT22;22158;59.280;17.806;2023-01-28T21:58:52;-0.20;99.90
35668;DHT22;22158;59.280;17.806;2023-01-28T22:01:37;-0.20;99.90
35668;DHT22;22158;59.280;17.806;2023-01-28T22:04:03;-0.30;99.90
35668;DHT22;22158;59.280;17.806;2023-01-28T22:06:29;-0.30;99.90
35668;DHT22;22158;59.280;17.806;2023-01-28T22:08:54;-0.40;99.90
35668;DHT22;22158;59.280;17.806;2023-01-28T22:11:20;-0.40;99.90
35668;DHT22;22158;59.280;17.806;2023-01-28T22:13:46;-0.20;99.90
35668;DHT22;22158;59.280;17.806;2023-01-28T22:16:12;-0.10;99.90
35668;DHT22;22158;59.280;17.806;2023-01-28T22:18:38;0.00;99.90
35668;DHT22;22158;59.280;17.806;2023-01-28T22:21:05;0.10;99.90
35668;DHT22;22158;59.280;17.806;2023-01-28T22:23:31;0.10;99.90
35668;DHT22;22158;59.280;17.806;2023-01-28T22:25:57;0.20;99.90
35668;DHT22;22158;59.280;17.806;2023-01-28T22:28:31;0.20;99.90
35668;DHT22;22158;59.280;17.806;2023-01-28T22:31:08;0.20;99.90
35668;DHT22;22158;59.280;17.806;2023-01-28T22:33:34;0.20;99.90
35668;DHT22;22158;59.280;17.806;2023-01-28T22:36:00;0.20;99.90
35668;DHT22;22158;59.280;17.806;2023-01-28T22:38:28;0.20;99.90
35668;DHT22;22158;59.280;17.806;2023-01-28T22:40:54;0.10;99.90
35668;DHT22;22158;59.280;17.806;2023-01-28T22:43:20;0.20;99.90
35668;DHT22;22158;59.280;17.806;2023-01-28T22:45:45;0.20;99.90
35668;DHT22;22158;59.280;17.806;2023-01-28T22:48:11;0.20;99.90
35668;DHT22;22158;59.280;17.806;2023-01-28T22:50:37;0.20;99.90